Time;durP1;ratioP1;P1;durP2;ratioP2;P2;SDS_P1;SDS_P2;PMS_P1;PMS_P2;Temp;Humidity;BMP_temperature;BMP_pressure;BME280_temperature;BME280_humidity;BME280_pressure;Samples;Min_cycle;Max_cycle;Signal;HPM_P1;HPM_P2
2022/12/07 00:01:43;;;;;;;2.08;0.90;;;;;;;;;;5072938;28;20096;-43
2022/12/07 00:04:11;;;;;;;1.30;1.13;;;;;;;;;;5071414;28;20020;-42
2022/12/07 00:06:38;;;;;;;0.95;0.80;;;;;;;;;;5071794;28;20091;-43
2022/12/07 00:09:05;;;;;;;2.28;0.98;;;;;;;;;;5071823;28;20016;-42
2022/12/07 00:11:31;;;;;;;1.17;0.70;;;;;;;;;;5072640;28;20030;-43
2022/12/07 00:13:59;;;;;;;2.15;1.08;;;;;;;;;;5072681;28;20182;-44
2022/12/07 00:16:26;;;;;;;2.72;1.33;;;;;;;;;;5063166;28;20025;-43
2022/12/07 00:18:52;;;;;;;2.47;1.83;;;;;;;;;;5070182;28;20032;-42
2022/12/07 00:21:19;;;;;;;1.52;1.02;;;;;;;;;;5071163;28;20020;-42
2022/12/07 00:23:46;;;;;;;1.65;1.10;;;;;;;;;;5073799;28;20024;-42
2022/12/07 00:26:14;;;;;;;1.67;1.10;;;;;;;;;;5072432;28;20477;-42
2022/12/07 00:28:41;;;;;;;1.33;1.10;;;;;;;;;;5073513;28;20016;-43
2022/12/07 00:31:09;;;;;;;0.80;0.80;;;;;;;;;;5072041;28;20024;-43
2022/12/07 00:33:36;;;;;;;1.42;1.00;;;;;;;;;;5064377;28;20021;-43
2022/12/07 00:36:02;;;;;;;2.08;1.20;;;;;;;;;;5063860;28;20090;-44
2022/12/07 00:38:29;;;;;;;1.90;1.00;;;;;;;;;;5071095;28;20055;-42
2022/12/07 00:41:00;;;;;;;1.50;1.25;;;;;;;;;;5070790;28;20389;-42
2022/12/07 00:43:26;;;;;;;1.63;1.00;;;;;;;;;;5071125;28;20020;-42
2022/12/07 00:45:52;;;;;;;2.00;1.10;;;;;;;;;;5073224;28;20034;-43
2022/12/07 00:48:18;;;;;;;2.10;1.10;;;;;;;;;;5072440;28;20480;-42
2022/12/07 00:50:44;;;;;;;1.80;1.27;;;;;;;;;;5065719;28;20021;-43
2022/12/07 00:53:10;;;;;;;1.40;1.00;;;;;;;;;;5070800;28;20040;-42
2022/12/07 00:55:37;;;;;;;1.35;1.10;;;;;;;;;;5072547;28;20071;-42
2022/12/07 00:58:03;;;;;;;1.05;0.95;;;;;;;;;;5071896;28;20031;-43
2022/12/07 01:00:29;;;;;;;1.95;1.15;;;;;;;;;;5073435;28;20017;-42
2022/12/07 01:02:55;;;;;;;2.53;1.60;;;;;;;;;;5072405;28;20425;-42
2022/12/07 01:05:21;;;;;;;1.17;1.02;;;;;;;;;;5071877;28;20097;-42
2022/12/07 01:07:47;;;;;;;2.53;1.70;;;;;;;;;;5072292;28;20381;-43
2022/12/07 01:10:14;;;;;;;1.35;1.25;;;;;;;;;;5072488;28;20028;-43
2022/12/07 01:12:40;;;;;;;1.90;1.15;;;;;;;;;;5072492;28;20021;-42
2022/12/07 01:15:06;;;;;;;1.60;1.23;;;;;;;;;;5064438;28;20110;-42
2022/12/07 01:17:32;;;;;;;1.42;0.93;;;;;;;;;;5071721;28;20024;-42
2022/12/07 01:19:58;;;;;;;1.77;1.63;;;;;;;;;;5069715;28;20043;-44
2022/12/07 01:22:24;;;;;;;1.40;1.10;;;;;;;;;;5071266;28;20029;-42
2022/12/07 01:24:50;;;;;;;1.40;1.00;;;;;;;;;;5072722;28;20380;-42
2022/12/07 01:27:16;;;;;;;1.45;1.10;;;;;;;;;;5071327;28;20017;-42
2022/12/07 01:29:42;;;;;;;2.03;1.17;;;;;;;;;;5066558;28;20029;-42
2022/12/07 01:32:08;;;;;;;1.13;1.02;;;;;;;;;;5071247;28;20032;-43
2022/12/07 01:34:34;;;;;;;1.30;1.15;;;;;;;;;;5080713;28;20039;-42
2022/12/07 01:37:00;;;;;;;1.83;1.35;;;;;;;;;;5070405;28;20028;-45
2022/12/07 01:39:26;;;;;;;1.92;0.90;;;;;;;;;;5072624;28;20030;-43
2022/12/07 01:41:52;;;;;;;1.50;1.10;;;;;;;;;;5071402;28;20029;-42
2022/12/07 01:44:29;;;;;;;0.93;0.93;;;;;;;;;;5071774;28;20025;-42
2022/12/07 01:46:57;;;;;;;3.10;1.50;;;;;;;;;;5059670;28;20100;-42
2022/12/07 01:49:34;;;;;;;2.03;1.25;;;;;;;;;;5064285;28;20039;-43
2022/12/07 01:52:18;;;;;;;1.90;1.33;;;;;;;;;;5071379;28;20420;-44
2022/12/07 01:54:45;;;;;;;1.85;1.40;;;;;;;;;;5070739;28;20032;-42
2022/12/07 01:57:12;;;;;;;1.55;1.15;;;;;;;;;;5070796;28;20048;-43
2022/12/07 01:59:38;;;;;;;2.58;1.40;;;;;;;;;;5072198;28;20426;-43
2022/12/07 02:02:08;;;;;;;1.30;1.10;;;;;;;;;;5071223;28;20454;-43
2022/12/07 02:04:34;;;;;;;1.55;1.10;;;;;;;;;;5064006;28;20107;-44
2022/12/07 02:07:00;;;;;;;1.20;1.02;;;;;;;;;;5073873;28;20107;-46
2022/12/07 02:09:26;;;;;;;2.08;1.40;;;;;;;;;;5071936;28;20050;-43
2022/12/07 02:11:52;;;;;;;1.25;1.15;;;;;;;;;;5071725;28;20028;-43
2022/12/07 02:14:18;;;;;;;1.58;1.20;;;;;;;;;;5071172;28;20477;-42
2022/12/07 02:16:52;;;;;;;1.75;1.25;;;;;;;;;;5070331;28;20070;-43
2022/12/07 02:19:33;;;;;;;1.40;1.20;;;;;;;;;;5065290;28;20095;-43
2022/12/07 02:22:08;;;;;;;1.35;1.08;;;;;;;;;;5060926;28;20044;-44
2022/12/07 02:24:37;;;;;;;1.45;1.10;;;;;;;;;;5063372;28;20098;-42
2022/12/07 02:27:22;;;;;;;1.83;1.50;;;;;;;;;;5064415;28;20040;-43
2022/12/07 02:29:48;;;;;;;1.25;1.10;;;;;;;;;;5059619;28;20020;-44
2022/12/07 02:32:20;;;;;;;1.42;1.10;;;;;;;;;;5067133;28;20078;-42
2022/12/07 02:34:51;;;;;;;2.42;1.60;;;;;;;;;;5071300;28;20032;-42
2022/12/07 02:37:22;;;;;;;1.13;0.95;;;;;;;;;;5069366;28;20568;-43
2022/12/07 02:39:53;;;;;;;1.23;1.13;;;;;;;;;;5064479;28;20047;-43
2022/12/07 02:42:24;;;;;;;2.10;1.10;;;;;;;;;;5069654;28;20270;-43
2022/12/07 02:44:51;;;;;;;1.60;1.10;;;;;;;;;;5071352;28;20036;-42
2022/12/07 02:47:18;;;;;;;1.98;1.10;;;;;;;;;;5070106;28;20032;-43
2022/12/07 02:49:45;;;;;;;1.95;1.60;;;;;;;;;;5071297;28;20527;-42
2022/12/07 02:52:11;;;;;;;2.85;1.48;;;;;;;;;;5070291;28;20084;-42
2022/12/07 02:54:37;;;;;;;1.88;1.40;;;;;;;;;;5083011;27;20087;-43
2022/12/07 02:57:09;;;;;;;1.80;1.08;;;;;;;;;;5094241;28;20023;-43
2022/12/07 02:59:38;;;;;;;1.52;1.15;;;;;;;;;;5092285;28;20101;-42
2022/12/07 03:02:22;;;;;;;1.52;1.38;;;;;;;;;;5089246;28;20057;-43
2022/12/07 03:05:07;;;;;;;2.47;1.65;;;;;;;;;;5090826;28;20031;-42
2022/12/07 03:07:39;;;;;;;1.30;1.00;;;;;;;;;;5091075;28;20025;-42
2022/12/07 03:10:13;;;;;;;1.80;1.20;;;;;;;;;;5090728;28;20028;-43
2022/12/07 03:12:51;;;;;;;1.20;1.10;;;;;;;;;;5091074;28;20258;-42
2022/12/07 03:15:26;;;;;;;1.25;0.85;;;;;;;;;;5087952;28;20040;-43
2022/12/07 03:17:53;;;;;;;1.33;1.15;;;;;;;;;;5091824;28;20020;-42
2022/12/07 03:20:20;;;;;;;1.90;1.30;;;;;;;;;;5093810;28;20098;-43
2022/12/07 03:22:47;;;;;;;1.60;1.20;;;;;;;;;;5103786;28;20520;-43
2022/12/07 03:25:14;;;;;;;1.38;1.27;;;;;;;;;;5096978;28;20040;-42
2022/12/07 03:27:44;;;;;;;1.73;1.30;;;;;;;;;;5091436;28;20055;-42
2022/12/07 03:30:13;;;;;;;1.88;1.42;;;;;;;;;;5097393;28;20027;-43
2022/12/07 03:32:42;;;;;;;1.40;1.20;;;;;;;;;;5097854;28;20496;-43
2022/12/07 03:35:13;;;;;;;1.30;1.10;;;;;;;;;;5097313;28;20126;-43
2022/12/07 03:37:59;;;;;;;1.35;1.00;;;;;;;;;;5097775;28;20048;-42
2022/12/07 03:40:45;;;;;;;1.23;1.13;;;;;;;;;;5079829;28;20036;-43
2022/12/07 03:43:11;;;;;;;1.95;1.42;;;;;;;;;;5094729;28;20020;-43
2022/12/07 03:45:37;;;;;;;1.98;1.20;;;;;;;;;;5097881;28;20495;-42
2022/12/07 03:48:08;;;;;;;1.98;1.27;;;;;;;;;;5096342;28;20024;-44
2022/12/07 03:50:53;;;;;;;2.20;1.33;;;;;;;;;;5096902;28;20028;-42
2022/12/07 03:53:22;;;;;;;1.48;1.10;;;;;;;;;;5096891;28;20103;-43
2022/12/07 03:55:49;;;;;;;0.88;0.88;;;;;;;;;;5090182;28;20035;-43
2022/12/07 03:58:17;;;;;;;1.60;1.40;;;;;;;;;;5102405;28;20380;-43
2022/12/07 04:00:43;;;;;;;1.75;1.20;;;;;;;;;;5097838;28;20031;-42
2022/12/07 04:03:09;;;;;;;1.40;1.10;;;;;;;;;;5092120;28;20100;-43
2022/12/07 04:05:35;;;;;;;1.25;1.00;;;;;;;;;;5090583;28;20127;-43
2022/12/07 04:08:01;;;;;;;1.92;1.42;;;;;;;;;;5094775;28;20020;-45
2022/12/07 04:10:27;;;;;;;1.67;1.10;;;;;;;;;;5097514;28;20095;-42
2022/12/07 04:12:53;;;;;;;1.85;1.13;;;;;;;;;;5088672;28;20155;-42
2022/12/07 04:15:19;;;;;;;2.67;1.17;;;;;;;;;;5090523;28;20028;-43
2022/12/07 04:17:45;;;;;;;2.65;1.25;;;;;;;;;;5097684;28;20365;-43
2022/12/07 04:20:11;;;;;;;1.48;1.13;;;;;;;;;;5089162;28;20056;-42
2022/12/07 04:22:37;;;;;;;1.50;1.00;;;;;;;;;;5097335;28;20020;-42
2022/12/07 04:25:04;;;;;;;1.10;0.98;;;;;;;;;;5096578;28;20508;-43
2022/12/07 04:27:30;;;;;;;1.63;1.50;;;;;;;;;;5096348;28;20024;-42
2022/12/07 04:29:56;;;;;;;1.38;1.13;;;;;;;;;;5095121;28;20087;-42
2022/12/07 04:32:23;;;;;;;1.10;1.00;;;;;;;;;;5092316;28;20024;-42
2022/12/07 04:34:49;;;;;;;1.73;1.35;;;;;;;;;;5094081;28;20089;-43
2022/12/07 04:37:15;;;;;;;1.38;0.90;;;;;;;;;;5092930;28;20016;-42
2022/12/07 04:39:41;;;;;;;1.63;1.38;;;;;;;;;;5093227;28;20071;-42
2022/12/07 04:42:07;;;;;;;1.98;1.40;;;;;;;;;;5092798;28;20016;-43
2022/12/07 04:44:33;;;;;;;1.40;1.00;;;;;;;;;;5094040;28;20081;-43
2022/12/07 04:46:58;;;;;;;1.20;1.00;;;;;;;;;;5091281;28;20020;-45
2022/12/07 04:49:25;;;;;;;1.23;0.93;;;;;;;;;;5085310;28;20055;-42
2022/12/07 04:51:51;;;;;;;1.70;1.10;;;;;;;;;;5093471;28;20028;-43
2022/12/07 04:54:18;;;;;;;1.77;1.10;;;;;;;;;;5092789;28;20048;-42
2022/12/07 04:56:44;;;;;;;1.27;0.98;;;;;;;;;;5094336;28;20024;-44
2022/12/07 04:59:11;;;;;;;1.77;1.50;;;;;;;;;;5086775;28;20041;-42
2022/12/07 05:01:37;;;;;;;1.95;1.50;;;;;;;;;;5093484;28;20035;-42
2022/12/07 05:04:03;;;;;;;1.73;1.05;;;;;;;;;;5092728;28;20024;-43
2022/12/07 05:06:29;;;;;;;1.00;0.80;;;;;;;;;;5090631;28;20485;-43
2022/12/07 05:08:55;;;;;;;1.38;1.10;;;;;;;;;;5091618;28;20027;-43
2022/12/07 05:11:39;;;;;;;1.67;1.10;;;;;;;;;;5091123;28;20050;-43
2022/12/07 05:14:06;;;;;;;1.33;1.20;;;;;;;;;;5097484;28;20065;-43
2022/12/07 05:16:32;;;;;;;1.25;1.08;;;;;;;;;;5092496;28;20473;-43
2022/12/07 05:18:58;;;;;;;1.42;1.30;;;;;;;;;;5093392;28;20465;-44
2022/12/07 05:21:24;;;;;;;1.48;1.23;;;;;;;;;;5089049;28;20032;-43
2022/12/07 05:23:51;;;;;;;1.98;1.13;;;;;;;;;;5092450;28;20028;-42
2022/12/07 05:26:17;;;;;;;1.25;0.82;;;;;;;;;;5092426;28;20085;-42
2022/12/07 05:28:43;;;;;;;1.40;1.08;;;;;;;;;;5093188;28;20024;-42
2022/12/07 05:31:09;;;;;;;1.20;1.00;;;;;;;;;;5082738;28;20031;-44
2022/12/07 05:33:35;;;;;;;1.40;1.20;;;;;;;;;;5092467;28;20107;-42
2022/12/07 05:36:05;;;;;;;1.98;1.08;;;;;;;;;;5091608;28;20034;-45
2022/12/07 05:38:32;;;;;;;1.20;1.00;;;;;;;;;;5091332;28;20053;-43
2022/12/07 05:41:01;;;;;;;1.55;1.20;;;;;;;;;;5092540;28;20031;-43
2022/12/07 05:43:27;;;;;;;1.40;1.08;;;;;;;;;;5092286;28;20020;-43
2022/12/07 05:45:53;;;;;;;1.30;0.90;;;;;;;;;;5093206;28;20082;-42
2022/12/07 05:48:19;;;;;;;1.00;0.90;;;;;;;;;;5090930;28;20320;-42
2022/12/07 05:50:47;;;;;;;1.10;0.95;;;;;;;;;;5084843;28;20093;-43
2022/12/07 05:53:13;;;;;;;1.17;0.95;;;;;;;;;;5090848;28;20070;-43
2022/12/07 05:55:39;;;;;;;1.73;1.10;;;;;;;;;;5092887;28;20302;-44
2022/12/07 06:01:04;;;;;;;2.88;1.73;;;;;;;;;;5052927;28;20035;-45
2022/12/07 06:03:30;;;;;;;1.42;1.08;;;;;;;;;;5092915;28;20373;-42
2022/12/07 06:05:56;;;;;;;1.25;1.00;;;;;;;;;;5089973;28;20024;-45
2022/12/07 06:08:22;;;;;;;1.02;0.93;;;;;;;;;;5087163;28;20032;-43
2022/12/07 06:12:33;;;;;;;1.42;1.10;;;;;;;;;;5089694;28;20100;-42
2022/12/07 06:13:34;;;;;;;1.10;1.00;;;;;;;;;;5091913;28;20043;-42
2022/12/07 06:16:00;;;;;;;2.53;1.15;;;;;;;;;;5092225;28;20028;-44
2022/12/07 06:18:26;;;;;;;1.48;1.23;;;;;;;;;;5091704;28;20081;-43
2022/12/07 06:20:52;;;;;;;1.23;1.10;;;;;;;;;;5088895;28;20107;-42
2022/12/07 06:23:18;;;;;;;2.10;1.35;;;;;;;;;;5083121;28;20033;-43
2022/12/07 06:25:46;;;;;;;1.95;1.48;;;;;;;;;;5092231;28;20059;-42
2022/12/07 06:28:11;;;;;;;1.10;0.88;;;;;;;;;;5091259;28;20024;-42
2022/12/07 06:30:37;;;;;;;1.38;1.05;;;;;;;;;;5085387;28;20935;-43
2022/12/07 06:33:03;;;;;;;2.05;1.40;;;;;;;;;;5080527;28;20036;-42
2022/12/07 06:35:29;;;;;;;1.50;1.25;;;;;;;;;;5091546;28;20040;-42
2022/12/07 06:37:55;;;;;;;1.92;1.25;;;;;;;;;;5084173;28;20438;-42
2022/12/07 06:40:21;;;;;;;1.60;1.20;;;;;;;;;;5084059;28;20099;-43
2022/12/07 06:42:47;;;;;;;1.50;1.20;;;;;;;;;;5082200;28;20029;-43
2022/12/07 06:45:13;;;;;;;1.70;1.10;;;;;;;;;;5081299;28;20483;-42
2022/12/07 06:47:39;;;;;;;2.55;1.20;;;;;;;;;;5090492;28;20012;-43
2022/12/07 06:50:07;;;;;;;1.98;1.40;;;;;;;;;;5083716;28;20016;-42
2022/12/07 06:52:33;;;;;;;1.88;1.30;;;;;;;;;;5090688;28;20031;-42
2022/12/07 06:54:59;;;;;;;1.58;1.45;;;;;;;;;;5073518;28;20409;-44
2022/12/07 06:57:25;;;;;;;2.30;1.70;;;;;;;;;;5075899;28;20028;-42
2022/12/07 06:59:51;;;;;;;2.08;1.30;;;;;;;;;;5071510;28;20028;-42
2022/12/07 07:02:17;;;;;;;1.40;1.10;;;;;;;;;;5062941;28;20024;-42
2022/12/07 07:04:43;;;;;;;1.25;0.80;;;;;;;;;;5070155;28;20032;-42
2022/12/07 07:07:10;;;;;;;1.92;1.70;;;;;;;;;;5063701;28;20028;-42
2022/12/07 07:09:36;;;;;;;2.47;1.70;;;;;;;;;;5062547;28;20108;-43
2022/12/07 07:12:02;;;;;;;2.42;1.90;;;;;;;;;;5069517;28;20115;-45
2022/12/07 07:14:28;;;;;;;2.80;2.05;;;;;;;;;;5070640;28;20032;-42
2022/12/07 07:16:54;;;;;;;4.15;2.30;;;;;;;;;;5054224;28;20032;-43
2022/12/07 07:19:19;;;;;;;3.08;2.30;;;;;;;;;;5077202;28;20033;-43
2022/12/07 07:21:46;;;;;;;3.20;2.53;;;;;;;;;;5061666;28;20478;-43
2022/12/07 07:24:12;;;;;;;4.20;2.45;;;;;;;;;;5074790;28;20107;-41
2022/12/07 07:26:38;;;;;;;3.33;2.30;;;;;;;;;;5066188;28;20129;-42
2022/12/07 07:29:04;;;;;;;2.90;2.30;;;;;;;;;;5073568;28;20055;-43
2022/12/07 07:31:30;;;;;;;4.82;2.70;;;;;;;;;;5065218;28;20052;-43
2022/12/07 07:33:56;;;;;;;2.97;2.05;;;;;;;;;;5070131;28;20060;-43
2022/12/07 07:36:22;;;;;;;2.97;1.80;;;;;;;;;;5067912;28;20060;-43
2022/12/07 07:38:48;;;;;;;2.10;1.45;;;;;;;;;;5073169;28;20040;-43
2022/12/07 07:41:14;;;;;;;4.97;1.73;;;;;;;;;;5059263;28;20021;-44
2022/12/07 07:43:40;;;;;;;1.90;1.40;;;;;;;;;;5062345;28;20108;-42
2022/12/07 07:46:06;;;;;;;1.77;1.40;;;;;;;;;;5069328;28;21082;-45
2022/12/07 07:48:32;;;;;;;3.47;1.50;;;;;;;;;;5061240;28;20052;-43
2022/12/07 07:50:58;;;;;;;2.45;1.92;;;;;;;;;;5066240;28;20058;-43
2022/12/07 07:53:24;;;;;;;2.17;1.27;;;;;;;;;;5059047;28;20510;-43
2022/12/07 07:55:53;;;;;;;2.28;1.75;;;;;;;;;;5040045;28;20103;-45
2022/12/07 07:58:19;;;;;;;1.80;1.13;;;;;;;;;;5045453;28;20037;-43
2022/12/07 08:00:45;;;;;;;2.10;1.38;;;;;;;;;;5041983;28;20071;-45
2022/12/07 08:03:11;;;;;;;1.75;1.20;;;;;;;;;;5037331;28;20037;-43
2022/12/07 08:05:38;;;;;;;1.70;1.15;;;;;;;;;;5055479;28;20017;-43
2022/12/07 08:08:04;;;;;;;2.65;1.42;;;;;;;;;;5046868;28;20046;-46
2022/12/07 08:10:31;;;;;;;3.17;1.35;;;;;;;;;;5066353;28;20021;-43
2022/12/07 08:13:10;;;;;;;2.55;1.77;;;;;;;;;;5040867;28;20394;-43
2022/12/07 08:15:36;;;;;;;2.38;1.38;;;;;;;;;;5052026;28;20044;-43
2022/12/07 08:18:02;;;;;;;5.57;1.63;;;;;;;;;;5054886;28;20029;-46
2022/12/07 08:20:30;;;;;;;2.35;1.27;;;;;;;;;;5059848;28;20024;-43
2022/12/07 08:22:56;;;;;;;2.17;1.20;;;;;;;;;;5047886;28;20056;-41
2022/12/07 08:25:22;;;;;;;4.93;1.40;;;;;;;;;;5047238;28;20266;-43
2022/12/07 08:27:49;;;;;;;2.13;1.60;;;;;;;;;;5043158;28;20028;-43
2022/12/07 08:30:15;;;;;;;1.67;1.20;;;;;;;;;;5053206;28;20029;-44
2022/12/07 08:32:41;;;;;;;2.05;1.40;;;;;;;;;;5041231;28;20120;-42
2022/12/07 08:35:08;;;;;;;1.77;1.38;;;;;;;;;;5040913;28;20092;-42
2022/12/07 08:37:34;;;;;;;2.17;1.35;;;;;;;;;;5050591;28;20087;-43
2022/12/07 08:40:00;;;;;;;1.52;1.30;;;;;;;;;;5056031;28;20052;-46
2022/12/07 08:42:29;;;;;;;2.67;1.95;;;;;;;;;;5049000;28;20075;-43
2022/12/07 08:44:55;;;;;;;2.15;1.27;;;;;;;;;;5050521;28;20511;-44
2022/12/07 08:47:21;;;;;;;2.80;1.58;;;;;;;;;;5039989;28;20089;-43
2022/12/07 08:49:49;;;;;;;1.48;1.08;;;;;;;;;;5042071;28;20502;-43
2022/12/07 08:52:16;;;;;;;4.25;1.50;;;;;;;;;;5048313;28;20462;-43
2022/12/07 08:54:42;;;;;;;2.53;1.58;;;;;;;;;;5076212;28;20056;-43
2022/12/07 08:57:08;;;;;;;2.58;1.35;;;;;;;;;;5061520;28;20102;-41
2022/12/07 08:59:36;;;;;;;1.90;1.40;;;;;;;;;;5083842;28;20055;-42
2022/12/07 09:02:02;;;;;;;3.08;1.58;;;;;;;;;;5064963;28;20016;-47
2022/12/07 09:04:28;;;;;;;3.75;1.67;;;;;;;;;;5071547;28;20047;-42
2022/12/07 09:06:54;;;;;;;2.72;1.60;;;;;;;;;;5064744;28;20028;-43
2022/12/07 09:09:20;;;;;;;2.38;1.60;;;;;;;;;;5068054;28;20068;-43
2022/12/07 09:11:46;;;;;;;3.58;1.60;;;;;;;;;;5071000;28;20052;-44
2022/12/07 09:14:13;;;;;;;4.78;1.70;;;;;;;;;;5071128;28;20116;-43
2022/12/07 09:16:39;;;;;;;4.25;1.40;;;;;;;;;;5063866;28;20025;-42
2022/12/07 09:19:05;;;;;;;3.20;1.67;;;;;;;;;;5065546;28;20041;-43
2022/12/07 09:21:31;;;;;;;3.08;1.92;;;;;;;;;;5060178;28;20086;-43
2022/12/07 09:23:57;;;;;;;4.70;2.03;;;;;;;;;;5066603;28;20056;-43
2022/12/07 09:26:23;;;;;;;3.53;1.27;;;;;;;;;;5062600;28;20565;-43
2022/12/07 09:28:49;;;;;;;4.25;2.05;;;;;;;;;;5073248;28;20091;-43
2022/12/07 09:31:15;;;;;;;2.22;1.23;;;;;;;;;;5067701;28;20389;-43
2022/12/07 09:33:41;;;;;;;3.83;2.17;;;;;;;;;;5071995;28;20025;-42
2022/12/07 09:36:09;;;;;;;2.78;1.73;;;;;;;;;;5073688;28;20043;-43
2022/12/07 09:38:35;;;;;;;2.65;1.30;;;;;;;;;;5074447;28;20044;-42
2022/12/07 09:41:06;;;;;;;2.45;1.40;;;;;;;;;;5066081;28;20028;-45
2022/12/07 09:43:32;;;;;;;3.90;1.52;;;;;;;;;;5070930;28;20389;-42
2022/12/07 09:45:58;;;;;;;4.55;1.55;;;;;;;;;;5066207;28;20044;-42
2022/12/07 09:48:36;;;;;;;2.88;1.60;;;;;;;;;;5069405;28;20039;-42
2022/12/07 09:51:03;;;;;;;3.20;1.60;;;;;;;;;;5062237;28;20031;-46
2022/12/07 09:53:29;;;;;;;2.58;1.20;;;;;;;;;;5074097;28;20059;-42
2022/12/07 09:55:56;;;;;;;2.90;1.60;;;;;;;;;;5066000;28;20055;-43
2022/12/07 09:58:26;;;;;;;3.33;1.92;;;;;;;;;;5069769;28;20172;-43
2022/12/07 10:00:54;;;;;;;4.35;1.80;;;;;;;;;;5071266;28;20116;-43
2022/12/07 10:03:20;;;;;;;2.00;1.40;;;;;;;;;;5067781;28;20029;-43
2022/12/07 10:05:48;;;;;;;2.63;1.33;;;;;;;;;;5063233;28;20027;-45
2022/12/07 10:08:16;;;;;;;2.25;1.50;;;;;;;;;;5061332;28;20070;-42
2022/12/07 10:10:43;;;;;;;2.03;1.20;;;;;;;;;;5066757;28;20123;-43
2022/12/07 10:13:19;;;;;;;5.40;2.33;;;;;;;;;;5063745;28;20016;-42
2022/12/07 10:15:45;;;;;;;4.00;2.08;;;;;;;;;;5062961;28;20067;-44
2022/12/07 10:18:37;;;;;;;3.95;1.33;;;;;;;;;;5060742;28;20083;-43
2022/12/07 10:21:03;;;;;;;;;;;;;;;;;;5066253;28;20024;-46
2022/12/07 10:23:29;;;;;;;5.65;1.58;;;;;;;;;;5060684;28;19988;-43
2022/12/07 10:25:55;;;;;;;3.63;1.65;;;;;;;;;;5068892;28;20024;-43
2022/12/07 10:28:21;;;;;;;2.15;1.27;;;;;;;;;;5059215;28;20164;-42
2022/12/07 10:30:47;;;;;;;4.15;1.40;;;;;;;;;;5069396;28;20032;-45
2022/12/07 10:33:29;;;;;;;2.50;1.40;;;;;;;;;;5065235;28;20036;-42
2022/12/07 10:35:55;;;;;;;2.85;1.45;;;;;;;;;;5058149;28;20040;-43
2022/12/07 10:38:21;;;;;;;7.93;1.42;;;;;;;;;;5065659;28;20032;-43
2022/12/07 10:40:47;;;;;;;2.00;1.23;;;;;;;;;;5067164;28;20028;-44
2022/12/07 10:43:13;;;;;;;2.30;1.50;;;;;;;;;;5065579;28;20401;-43
2022/12/07 10:45:46;;;;;;;2.30;1.45;;;;;;;;;;5063737;28;20044;-43
2022/12/07 10:48:32;;;;;;;2.42;1.50;;;;;;;;;;5063285;28;20119;-43
2022/12/07 10:51:15;;;;;;;4.30;1.30;;;;;;;;;;5057981;28;20029;-42
2022/12/07 10:53:41;;;;;;;2.42;0.98;;;;;;;;;;5060677;28;20056;-43
2022/12/07 10:56:13;;;;;;;2.35;1.30;;;;;;;;;;5058573;28;20474;-40
2022/12/07 10:58:58;;;;;;;2.28;1.30;;;;;;;;;;5061127;28;20094;-42
2022/12/07 11:01:36;;;;;;;3.10;1.20;;;;;;;;;;5067326;28;20031;-43
2022/12/07 11:04:15;;;;;;;2.83;1.52;;;;;;;;;;5063560;28;20031;-44
2022/12/07 11:06:47;;;;;;;56.80;3.35;;;;;;;;;;5065488;28;20038;-41
2022/12/07 11:09:16;;;;;;;2.17;1.30;;;;;;;;;;5060930;28;20071;-44
2022/12/07 11:11:57;;;;;;;3.20;1.08;;;;;;;;;;5067326;28;20028;-44
2022/12/07 11:14:37;;;;;;;3.15;1.63;;;;;;;;;;5058929;28;20159;-43
2022/12/07 11:17:10;;;;;;;2.58;1.00;;;;;;;;;;5057348;28;20474;-45
2022/12/07 11:19:44;;;;;;;2.70;0.95;;;;;;;;;;5066693;28;20498;-45
2022/12/07 11:22:17;;;;;;;2.08;1.08;;;;;;;;;;5060093;28;20470;-43
2022/12/07 11:24:50;;;;;;;5.03;1.30;;;;;;;;;;5069471;28;20048;-44
2022/12/07 11:27:22;;;;;;;1.25;1.05;;;;;;;;;;5052725;28;20494;-44
2022/12/07 11:29:48;;;;;;;1.33;0.85;;;;;;;;;;5063807;28;20119;-44
2022/12/07 11:32:15;;;;;;;3.35;0.90;;;;;;;;;;5054244;28;20128;-45
2022/12/07 11:34:50;;;;;;;1.80;0.90;;;;;;;;;;5057323;28;20043;-45
2022/12/07 11:37:24;;;;;;;1.63;1.10;;;;;;;;;;5058985;28;20409;-46
2022/12/07 11:39:52;;;;;;;3.72;1.42;;;;;;;;;;5063801;28;20429;-43
2022/12/07 11:42:23;;;;;;;6.00;1.73;;;;;;;;;;5065899;28;20032;-43
2022/12/07 11:44:49;;;;;;;1.77;1.00;;;;;;;;;;5069543;28;20489;-43
2022/12/07 11:47:26;;;;;;;1.92;1.30;;;;;;;;;;5061587;28;20025;-44
2022/12/07 11:49:52;;;;;;;4.30;1.40;;;;;;;;;;5068730;28;20033;-43
2022/12/07 11:52:25;;;;;;;2.63;1.13;;;;;;;;;;5063480;28;20112;-44
2022/12/07 11:54:53;;;;;;;2.17;0.98;;;;;;;;;;5067018;28;20498;-43
2022/12/07 11:57:28;;;;;;;1.60;1.10;;;;;;;;;;5068881;28;20030;-43
2022/12/07 11:59:59;;;;;;;3.60;1.58;;;;;;;;;;5073399;28;20123;-43
2022/12/07 12:02:42;;;;;;;4.43;1.55;;;;;;;;;;5068738;28;20021;-43
2022/12/07 12:05:08;;;;;;;5.57;1.83;;;;;;;;;;5067899;28;20048;-42
2022/12/07 12:07:34;;;;;;;3.65;2.60;;;;;;;;;;5060768;28;20024;-43
2022/12/07 12:10:06;;;;;;;5.95;1.88;;;;;;;;;;5069841;28;20039;-46
2022/12/07 12:12:32;;;;;;;;;;;;;;;;;;5069193;28;20381;-44
2022/12/07 12:15:14;;;;;;;3.70;2.10;;;;;;;;;;5064864;28;19926;-44
2022/12/07 12:17:59;;;;;;;6.30;2.58;;;;;;;;;;5067155;28;20033;-43
2022/12/07 12:20:28;;;;;;;1.85;1.23;;;;;;;;;;5069875;28;20112;-47
2022/12/07 12:22:58;;;;;;;2.58;1.10;;;;;;;;;;5067251;28;20384;-44
2022/12/07 12:25:24;;;;;;;3.80;1.30;;;;;;;;;;5072135;28;20036;-46
2022/12/07 12:27:50;;;;;;;1.73;1.10;;;;;;;;;;5067055;28;20064;-43
2022/12/07 12:30:33;;;;;;;1.83;1.30;;;;;;;;;;5062713;28;20388;-44
2022/12/07 12:33:04;;;;;;;2.53;1.65;;;;;;;;;;5066045;28;20174;-45
2022/12/07 12:35:35;;;;;;;2.70;0.97;;;;;;;;;;5069217;28;20064;-43
2022/12/07 12:38:20;;;;;;;5.32;1.63;;;;;;;;;;5070066;28;20028;-46
2022/12/07 12:40:46;;;;;;;1.30;0.85;;;;;;;;;;5073159;28;20053;-46
2022/12/07 12:43:30;;;;;;;2.05;0.90;;;;;;;;;;5067610;28;20048;-43
2022/12/07 12:46:16;;;;;;;1.90;1.33;;;;;;;;;;5062462;28;20375;-42
2022/12/07 12:48:42;;;;;;;2.70;1.10;;;;;;;;;;5047687;28;21888;-43
2022/12/07 12:51:44;;;;;;;3.53;1.25;;;;;;;;;;5061842;28;20147;-43
2022/12/07 12:54:15;;;;;;;3.30;0.97;;;;;;;;;;5024114;28;20061;-43
2022/12/07 12:56:40;;;;;;;1.60;0.98;;;;;;;;;;5056804;28;20135;-43
2022/12/07 12:59:22;;;;;;;1.70;0.82;;;;;;;;;;5080939;28;20095;-44
2022/12/07 13:01:49;;;;;;;2.22;1.10;;;;;;;;;;5075946;28;20081;-43
2022/12/07 13:04:37;;;;;;;3.05;1.20;;;;;;;;;;5092396;28;20028;-44
2022/12/07 13:07:03;;;;;;;3.17;1.00;;;;;;;;;;5066567;28;20039;-45
2022/12/07 13:09:31;;;;;;;1.60;1.10;;;;;;;;;;5087152;28;20024;-43
2022/12/07 13:12:13;;;;;;;2.60;1.02;;;;;;;;;;5088870;28;20044;-42
2022/12/07 13:14:54;;;;;;;2.40;0.80;;;;;;;;;;5087406;28;20078;-43
2022/12/07 13:17:32;;;;;;;1.15;0.90;;;;;;;;;;5084122;28;20034;-43
2022/12/07 13:19:58;;;;;;;2.65;1.10;;;;;;;;;;5082476;28;20020;-42
2022/12/07 13:22:31;;;;;;;1.45;0.93;;;;;;;;;;5083724;28;21035;-43
2022/12/07 13:24:57;;;;;;;1.08;0.85;;;;;;;;;;5080938;28;20070;-41
2022/12/07 13:27:25;;;;;;;3.00;1.23;;;;;;;;;;5080754;28;20144;-43
2022/12/07 13:29:52;;;;;;;5.70;1.63;;;;;;;;;;5091583;28;20457;-43
2022/12/07 13:32:24;;;;;;;1.80;1.27;;;;;;;;;;5082752;28;20059;-44
2022/12/07 13:34:50;;;;;;;1.42;1.02;;;;;;;;;;5096054;28;20026;-44
2022/12/07 13:37:19;;;;;;;1.42;1.15;;;;;;;;;;5083923;28;20113;-43
2022/12/07 13:39:56;;;;;;;1.67;0.80;;;;;;;;;;5090019;28;20421;-44
2022/12/07 13:42:26;;;;;;;1.73;1.10;;;;;;;;;;5083681;28;20058;-42
2022/12/07 13:44:53;;;;;;;3.90;1.27;;;;;;;;;;5084797;28;20020;-43
2022/12/07 13:47:28;;;;;;;1.45;1.00;;;;;;;;;;5087809;28;20151;-43
2022/12/07 13:49:55;;;;;;;2.35;1.40;;;;;;;;;;5091396;28;20039;-44
2022/12/07 13:52:24;;;;;;;2.88;1.02;;;;;;;;;;5083006;28;20331;-42
2022/12/07 13:54:56;;;;;;;1.00;0.88;;;;;;;;;;5096577;28;20208;-43
2022/12/07 13:57:22;;;;;;;;;;;;;;;;;;5091578;28;20055;-43
2022/12/07 13:59:48;;;;;;;1.60;1.00;;;;;;;;;;5090740;28;19958;-41
2022/12/07 14:02:27;;;;;;;1.40;0.90;;;;;;;;;;5087147;28;20028;-43
2022/12/07 14:05:06;;;;;;;1.40;0.75;;;;;;;;;;5091684;28;20024;-43
2022/12/07 14:07:33;;;;;;;1.15;0.70;;;;;;;;;;5082970;28;20044;-44
2022/12/07 14:10:07;;;;;;;1.15;0.90;;;;;;;;;;5085351;28;20036;-45
2022/12/07 14:12:36;;;;;;;1.40;0.98;;;;;;;;;;5079047;28;20087;-43
2022/12/07 14:15:03;;;;;;;1.20;0.80;;;;;;;;;;5092989;28;20544;-45
2022/12/07 14:17:29;;;;;;;3.50;1.05;;;;;;;;;;5079682;28;20029;-43
2022/12/07 14:19:56;;;;;;;2.30;1.13;;;;;;;;;;5091271;28;20392;-43
2022/12/07 14:22:22;;;;;;;1.88;0.90;;;;;;;;;;5082359;28;20046;-43
2022/12/07 14:24:48;;;;;;;2.50;1.27;;;;;;;;;;5086061;28;20032;-43
2022/12/07 14:27:22;;;;;;;3.10;1.38;;;;;;;;;;5066981;28;20047;-43
2022/12/07 14:29:48;;;;;;;2.90;1.67;;;;;;;;;;5092540;28;20020;-43
2022/12/07 14:32:24;;;;;;;3.65;2.08;;;;;;;;;;5086543;28;20044;-43
2022/12/07 14:34:53;;;;;;;2.72;1.50;;;;;;;;;;5096233;28;20036;-43
2022/12/07 14:37:19;;;;;;;2.33;1.38;;;;;;;;;;5078592;28;20627;-43
2022/12/07 14:39:45;;;;;;;4.05;1.25;;;;;;;;;;5083517;28;20111;-43
2022/12/07 14:42:11;;;;;;;2.22;1.50;;;;;;;;;;5082693;28;20047;-43
2022/12/07 14:44:37;;;;;;;3.47;1.42;;;;;;;;;;5082805;28;20542;-44
2022/12/07 14:47:03;;;;;;;3.50;1.20;;;;;;;;;;5077487;28;20024;-45
2022/12/07 14:49:29;;;;;;;2.65;1.65;;;;;;;;;;5090728;28;20024;-42
2022/12/07 14:51:55;;;;;;;3.50;1.20;;;;;;;;;;5074249;28;20031;-43
2022/12/07 14:54:23;;;;;;;3.53;1.35;;;;;;;;;;5079566;28;20662;-44
2022/12/07 14:56:50;;;;;;;1.85;1.10;;;;;;;;;;5072277;28;20598;-43